Time,TemperatureF,DewpointF,PressureIn,WindDirection,WindDirectionDegrees,WindSpeedMPH,WindSpeedGustMPH,Humidity,HourlyPrecipIn,Conditions,Clouds,dailyrainin,SolarRadiationWatts/m^2,SoftwareType,DateUTC
2013-10-10 00:00:00,47.2,37.6,30.42,SSW,206,0.0,-999.0,69,0.00,,,0.00,0,WeatherHawk,2013-10-10 04:00:00,
2013-10-10 00:04:00,46.4,36.8,30.43,South,179,0.0,-999.0,69,0.00,,,0.00,0,WeatherHawk,2013-10-10 04:04:00,
2013-10-10 00:09:00,47.0,37.8,30.43,South,179,0.0,-999.0,70,0.00,,,0.00,0,WeatherHawk,2013-10-10 04:09:00,
2013-10-10 00:14:00,46.6,38.1,30.43,WSW,257,0.0,-999.0,72,0.00,,,0.00,0,WeatherHawk,2013-10-10 04:14:00,
2013-10-10 00:19:00,46.7,38.5,30.42,WSW,257,0.0,-999.0,73,0.00,,,0.00,1,WeatherHawk,2013-10-10 04:19:00,
2013-10-10 00:24:00,46.9,39.0,30.43,WSW,254,0.0,-999.0,74,0.00,,,0.00,0,WeatherHawk,2013-10-10 04:24:00,
2013-10-10 00:29:00,46.4,38.2,30.42,WSW,237,0.0,-999.0,73,0.00,,,0.00,1,WeatherHawk,2013-10-10 04:29:00,
2013-10-10 00:34:00,46.5,38.3,30.42,WSW,237,0.0,-999.0,73,0.00,,,0.00,1,WeatherHawk,2013-10-10 04:34:00,
2013-10-10 00:39:00,45.9,37.7,30.42,WSW,237,0.0,-999.0,73,0.00,,,0.00,0,WeatherHawk,2013-10-10 04:39:00,
2013-10-10 00:44:00,46.1,38.3,30.42,South,183,0.0,-999.0,74,0.00,,,0.00,0,WeatherHawk,2013-10-10 04:44:00,
2013-10-10 00:49:00,46.3,38.8,30.42,South,183,0.0,-999.0,75,0.00,,,0.00,0,WeatherHawk,2013-10-10 04:49:00,
2013-10-10 00:54:00,45.6,38.1,30.41,South,183,0.0,-999.0,75,0.00,,,0.00,0,WeatherHawk,2013-10-10 04:54:00,
2013-10-10 00:59:00,45.5,38.3,30.42,SSE,165,0.0,-999.0,76,0.00,,,0.00,0,WeatherHawk,2013-10-10 04:59:00,
2013-10-10 01:04:00,45.6,38.8,30.42,SSE,164,0.0,-999.0,77,0.00,,,0.00,0,WeatherHawk,2013-10-10 05:04:00,
2013-10-10 01:09:00,45.4,38.9,30.42,SSE,164,0.0,-999.0,78,0.00,,,0.00,0,WeatherHawk,2013-10-10 05:09:00,
2013-10-10 01:14:00,45.3,39.2,30.42,SSE,164,0.0,-999.0,79,0.00,,,0.00,0,WeatherHawk,2013-10-10 05:14:00,
2013-10-10 01:19:00,45.4,39.3,30.42,SSE,164,0.0,-999.0,79,0.00,,,0.00,0,WeatherHawk,2013-10-10 05:19:00,
2013-10-10 01:24:00,45.4,39.6,30.42,SSE,164,0.0,-999.0,80,0.00,,,0.00,0,WeatherHawk,2013-10-10 05:24:00,
2013-10-10 01:29:00,45.1,39.7,30.42,SSE,164,0.0,-999.0,81,0.00,,,0.00,0,WeatherHawk,2013-10-10 05:29:00,
2013-10-10 01:34:00,45.1,39.6,30.42,SE,128,0.0,-999.0,81,0.00,,,0.00,0,WeatherHawk,2013-10-10 05:34:00,
2013-10-10 01:39:00,45.2,40.0,30.42,SE,145,0.0,-999.0,82,0.00,,,0.00,0,WeatherHawk,2013-10-10 05:39:00,
2013-10-10 01:44:00,44.3,39.1,30.42,SE,146,0.0,-999.0,82,0.00,,,0.00,0,WeatherHawk,2013-10-10 05:44:00,
2013-10-10 01:49:00,45.3,40.5,30.42,SE,145,0.0,-999.0,83,0.00,,,0.00,1,WeatherHawk,2013-10-10 05:49:00,
2013-10-10 01:54:00,45.2,40.6,30.42,WSW,242,0.0,-999.0,84,0.00,,,0.00,0,WeatherHawk,2013-10-10 05:54:00,
2013-10-10 01:59:00,45.3,40.8,30.41,WSW,242,0.0,-999.0,84,0.00,,,0.00,0,WeatherHawk,2013-10-10 05:59:00,
2013-10-10 02:04:00,45.3,40.7,30.42,WSW,242,0.0,-999.0,84,0.00,,,0.00,0,WeatherHawk,2013-10-10 06:04:00,
2013-10-10 02:09:00,44.8,40.6,30.41,WSW,242,0.0,-999.0,85,0.00,,,0.00,0,WeatherHawk,2013-10-10 06:09:00,
2013-10-10 02:14:00,45.2,40.9,30.42,WSW,242,0.0,-999.0,85,0.00,,,0.00,0,WeatherHawk,2013-10-10 06:14:00,
2013-10-10 02:19:00,45.0,41.0,30.42,WSW,242,0.0,-999.0,86,0.00,,,0.00,0,WeatherHawk,2013-10-10 06:19:00,
2013-10-10 02:24:00,45.3,41.4,30.42,WSW,242,0.0,-999.0,86,0.00,,,0.00,0,WeatherHawk,2013-10-10 06:24:00,
2013-10-10 02:29:00,45.3,41.3,30.42,WSW,242,0.0,-999.0,86,0.00,,,0.00,0,WeatherHawk,2013-10-10 06:29:00,
2013-10-10 02:34:00,45.0,41.4,30.42,WSW,242,0.0,-999.0,87,0.00,,,0.00,0,WeatherHawk,2013-10-10 06:34:00,
2013-10-10 02:39:00,44.8,41.1,30.42,WSW,241,0.0,-999.0,87,0.00,,,0.00,0,WeatherHawk,2013-10-10 06:39:00,
2013-10-10 02:45:00,44.8,41.2,30.43,WSW,241,0.0,-999.0,87,0.00,,,0.00,1,WeatherHawk,2013-10-10 06:45:00,
2013-10-10 02:54:00,43.7,40.4,30.42,WSW,241,0.0,-999.0,88,0.00,,,0.00,0,WeatherHawk,2013-10-10 06:54:00,
2013-10-10 02:59:00,44.3,41.0,30.42,East,97,0.0,-999.0,88,0.00,,,0.00,0,WeatherHawk,2013-10-10 06:59:00,
2013-10-10 03:04:00,44.3,41.0,30.41,East,88,0.0,-999.0,88,0.00,,,0.00,0,WeatherHawk,2013-10-10 07:04:00,
2013-10-10 03:09:00,44.3,41.3,30.41,East,88,0.0,-999.0,89,0.00,,,0.00,0,WeatherHawk,2013-10-10 07:09:00,
2013-10-10 03:14:00,44.0,40.9,30.42,NNW,334,0.0,-999.0,89,0.00,,,0.00,0,WeatherHawk,2013-10-10 07:14:00,
2013-10-10 03:19:00,44.0,40.9,30.41,NNW,337,0.0,-999.0,89,0.00,,,0.00,0,WeatherHawk,2013-10-10 07:19:00,
2013-10-10 03:24:00,44.2,41.4,30.42,NW,316,0.0,-999.0,90,0.00,,,0.00,1,WeatherHawk,2013-10-10 07:24:00,